Time;durP1;ratioP1;P1;durP2;ratioP2;P2;SDS_P1;SDS_P2;PMS_P1;PMS_P2;Temp;Humidity;BMP_temperature;BMP_pressure;BME280_temperature;BME280_humidity;BME280_pressure;Samples;Min_cycle;Max_cycle;Signal;HPM_P1;HPM_P2
2023/10/15 03:11:19;;;;;;;;;;;;;;;;;;6243860;23;20468;-71
2023/10/15 03:16:18;;;;;;;6.30;5.88;;;;;;;;;;6193088;23;20023;-69
2023/10/15 03:18:48;;;;;;;7.30;6.70;;;;;;;;;;6243432;23;20012;-69
2023/10/15 03:21:25;;;;;;;9.82;7.85;;;;;;;;;;6243152;23;20012;-69
2023/10/15 03:23:55;;;;;;;6.63;6.10;;;;;;;;;;6243342;23;20019;-71
2023/10/15 03:26:23;;;;;;;9.88;7.20;;;;;;;;;;6186549;23;20019;-71
2023/10/15 03:28:52;;;;;;;6.65;6.00;;;;;;;;;;6214627;23;20381;-71
2023/10/15 03:31:23;;;;;;;8.27;6.68;;;;;;;;;;6243476;23;20055;-71
2023/10/15 03:34:14;;;;;;;7.60;6.80;;;;;;;;;;6216574;23;20030;-71
2023/10/15 03:39:15;;;;;;;7.72;7.05;;;;;;;;;;6216618;23;19907;-70
2023/10/15 03:41:52;;;;;;;7.32;6.72;;;;;;;;;;6243017;23;20012;-72
2023/10/15 03:44:23;;;;;;;9.27;6.63;;;;;;;;;;6243595;23;20023;-70
2023/10/15 03:46:50;;;;;;;8.27;7.50;;;;;;;;;;6215987;23;20018;-71
2023/10/15 03:49:26;;;;;;;7.65;6.40;;;;;;;;;;6216135;23;20035;-71
2023/10/15 03:51:53;;;;;;;7.13;6.43;;;;;;;;;;6244277;23;20145;-71
2023/10/15 03:54:22;;;;;;;7.60;6.97;;;;;;;;;;6244168;23;20078;-72
2023/10/15 03:56:48;;;;;;;8.48;7.68;;;;;;;;;;6216685;23;20019;-72
2023/10/15 03:59:14;;;;;;;8.43;6.90;;;;;;;;;;6216904;23;20066;-70
2023/10/15 04:01:49;;;;;;;9.30;7.50;;;;;;;;;;6216433;23;20007;-70
2023/10/15 04:04:18;;;;;;;11.32;7.57;;;;;;;;;;6242803;23;20475;-71
2023/10/15 04:07:02;;;;;;;7.38;6.63;;;;;;;;;;6216078;23;20008;-70
2023/10/15 04:09:33;;;;;;;11.55;6.57;;;;;;;;;;6242636;23;20099;-71
2023/10/15 04:11:59;;;;;;;7.32;6.57;;;;;;;;;;6242565;23;20066;-71
2023/10/15 04:14:28;;;;;;;12.27;7.15;;;;;;;;;;6242594;23;20424;-72
2023/10/15 04:16:55;;;;;;;8.60;6.75;;;;;;;;;;6215357;23;20346;-71
2023/10/15 04:19:25;;;;;;;8.00;7.20;;;;;;;;;;6242583;23;20011;-72
2023/10/15 04:21:52;;;;;;;7.30;6.60;;;;;;;;;;6242412;23;20356;-72
2023/10/15 04:24:26;;;;;;;8.05;7.35;;;;;;;;;;6242635;23;20050;-71
2023/10/15 04:26:53;;;;;;;7.53;6.93;;;;;;;;;;6217806;23;20091;-71
2023/10/15 04:29:21;;;;;;;10.10;6.88;;;;;;;;;;6242944;23;20016;-71
2023/10/15 04:32:00;;;;;;;8.32;7.05;;;;;;;;;;6242615;23;20016;-71
2023/10/15 04:34:27;;;;;;;9.25;6.90;;;;;;;;;;6194044;23;20508;-71
2023/10/15 04:36:54;;;;;;;10.52;7.95;;;;;;;;;;6242167;23;20020;-71
2023/10/15 04:39:22;;;;;;;7.32;6.15;;;;;;;;;;6216026;23;20511;-72
2023/10/15 04:41:49;;;;;;;7.30;6.60;;;;;;;;;;6242347;23;20326;-70
2023/10/15 04:44:31;;;;;;;7.45;6.85;;;;;;;;;;6242695;23;20016;-71
2023/10/15 04:47:05;;;;;;;6.28;5.78;;;;;;;;;;6241805;23;20036;-70
2023/10/15 04:49:33;;;;;;;11.23;7.53;;;;;;;;;;6215658;23;20461;-71
2023/10/15 04:51:59;;;;;;;7.55;6.82;;;;;;;;;;6240756;23;20012;-69
2023/10/15 04:54:25;;;;;;;7.88;7.13;;;;;;;;;;6241500;23;20015;-69
2023/10/15 04:56:52;;;;;;;8.13;7.30;;;;;;;;;;6241079;23;20011;-67
2023/10/15 04:59:18;;;;;;;7.88;6.97;;;;;;;;;;6214804;23;20410;-68
2023/10/15 05:01:45;;;;;;;8.10;7.40;;;;;;;;;;6241458;23;20023;-69
2023/10/15 05:04:13;;;;;;;8.45;7.35;;;;;;;;;;6241264;23;20012;-69
2023/10/15 05:06:39;;;;;;;9.15;7.15;;;;;;;;;;6214682;23;20707;-69
2023/10/15 05:09:09;;;;;;;8.45;7.50;;;;;;;;;;6241000;23;20050;-69
2023/10/15 05:11:35;;;;;;;10.40;8.93;;;;;;;;;;6241932;23;20020;-70
2023/10/15 05:14:00;;;;;;;10.15;7.68;;;;;;;;;;6241521;23;20705;-71
2023/10/15 05:16:27;;;;;;;8.48;7.53;;;;;;;;;;6241944;23;20099;-69
2023/10/15 05:18:52;;;;;;;7.50;6.90;;;;;;;;;;6241323;23;20138;-69
2023/10/15 05:21:18;;;;;;;5.80;5.38;;;;;;;;;;6214944;23;20054;-69
2023/10/15 05:23:45;;;;;;;12.77;7.45;;;;;;;;;;6214370;23;20354;-69
2023/10/15 05:26:12;;;;;;;8.40;7.68;;;;;;;;;;6241088;23;20452;-69
2023/10/15 05:28:38;;;;;;;11.82;8.90;;;;;;;;;;6241020;23;20062;-71
2023/10/15 05:31:04;;;;;;;10.80;7.25;;;;;;;;;;6214598;23;20032;-70
2023/10/15 05:33:30;;;;;;;11.57;8.50;;;;;;;;;;6241835;23;20008;-70
2023/10/15 05:35:59;;;;;;;10.18;9.00;;;;;;;;;;6240470;23;20016;-72
2023/10/15 05:38:27;;;;;;;9.60;8.68;;;;;;;;;;6241134;23;20008;-72
2023/10/15 05:40:57;;;;;;;11.10;10.02;;;;;;;;;;6241306;23;20062;-71
2023/10/15 05:43:23;;;;;;;10.33;9.17;;;;;;;;;;6214836;23;20031;-71
2023/10/15 05:45:50;;;;;;;10.40;8.98;;;;;;;;;;6241862;23;20437;-73
2023/10/15 05:48:17;;;;;;;8.90;7.60;;;;;;;;;;6241856;23;20463;-72
2023/10/15 05:50:48;;;;;;;9.80;8.77;;;;;;;;;;6242114;23;20024;-73
2023/10/15 05:53:13;;;;;;;11.63;9.40;;;;;;;;;;6241707;23;20016;-72
2023/10/15 05:55:39;;;;;;;10.50;9.63;;;;;;;;;;6241851;23;20031;-71
2023/10/15 05:58:07;;;;;;;11.45;8.75;;;;;;;;;;6241682;23;20008;-71
2023/10/15 06:00:39;;;;;;;9.80;9.00;;;;;;;;;;6189959;23;20425;-72
2023/10/15 06:03:06;;;;;;;10.38;7.93;;;;;;;;;;6240826;23;20008;-72
2023/10/15 06:05:32;;;;;;;10.23;9.20;;;;;;;;;;6214946;23;20496;-72
2023/10/15 06:07:58;;;;;;;10.27;9.25;;;;;;;;;;6214483;23;20015;-72
2023/10/15 06:10:24;;;;;;;9.65;8.77;;;;;;;;;;6241669;23;20024;-71
2023/10/15 06:12:51;;;;;;;10.20;9.13;;;;;;;;;;6242024;23;20008;-71
2023/10/15 06:15:17;;;;;;;9.45;8.65;;;;;;;;;;6215268;23;20018;-73
2023/10/15 06:17:43;;;;;;;9.63;8.73;;;;;;;;;;6241724;23;20023;-72
2023/10/15 06:20:13;;;;;;;9.07;8.38;;;;;;;;;;6241573;23;20012;-71
2023/10/15 06:22:43;;;;;;;10.02;8.90;;;;;;;;;;6242661;23;20032;-72
2023/10/15 06:25:11;;;;;;;9.85;8.45;;;;;;;;;;6244043;23;20016;-72
2023/10/15 06:27:40;;;;;;;15.40;10.15;;;;;;;;;;6217317;23;20421;-72
2023/10/15 06:30:10;;;;;;;10.15;9.13;;;;;;;;;;6191516;23;20028;-72
2023/10/15 06:32:36;;;;;;;11.37;10.37;;;;;;;;;;6242295;23;20400;-71
2023/10/15 06:35:02;;;;;;;10.88;9.05;;;;;;;;;;6241399;23;20480;-72
2023/10/15 06:37:29;;;;;;;10.48;9.48;;;;;;;;;;6241838;23;20035;-72
2023/10/15 06:39:56;;;;;;;11.30;10.13;;;;;;;;;;6214196;23;20016;-71
2023/10/15 06:42:23;;;;;;;10.38;9.57;;;;;;;;;;6214745;23;20369;-72
2023/10/15 06:44:48;;;;;;;11.52;10.52;;;;;;;;;;6217219;23;20095;-71
2023/10/15 06:47:14;;;;;;;10.40;9.45;;;;;;;;;;6243433;23;20558;-72
2023/10/15 06:49:40;;;;;;;11.13;10.13;;;;;;;;;;6243616;23;20023;-71
2023/10/15 06:52:06;;;;;;;11.32;10.18;;;;;;;;;;6243434;23;20086;-70
2023/10/15 06:54:33;;;;;;;15.10;10.82;;;;;;;;;;6216879;23;20479;-72
2023/10/15 06:56:59;;;;;;;13.57;10.23;;;;;;;;;;6243373;23;20012;-71
2023/10/15 06:59:25;;;;;;;11.07;9.15;;;;;;;;;;6243556;23;20090;-71
2023/10/15 07:01:51;;;;;;;13.77;12.10;;;;;;;;;;6243530;23;20012;-70
2023/10/15 07:04:17;;;;;;;13.27;10.77;;;;;;;;;;6243091;23;20131;-71
2023/10/15 07:06:43;;;;;;;12.73;11.43;;;;;;;;;;6243117;23;20027;-71
2023/10/15 07:09:09;;;;;;;12.48;11.15;;;;;;;;;;6242383;23;20016;-72
2023/10/15 07:11:35;;;;;;;13.23;11.60;;;;;;;;;;6242542;23;20457;-71
2023/10/15 07:14:02;;;;;;;12.27;11.15;;;;;;;;;;6242574;23;20008;-72
2023/10/15 07:16:28;;;;;;;12.90;11.73;;;;;;;;;;6243039;23;20087;-72
2023/10/15 07:18:55;;;;;;;13.27;12.05;;;;;;;;;;6243164;23;20012;-71
2023/10/15 07:21:20;;;;;;;16.33;12.07;;;;;;;;;;6243042;23;20008;-71
2023/10/15 07:23:51;;;;;;;13.38;12.05;;;;;;;;;;6243399;23;20012;-72
2023/10/15 07:26:17;;;;;;;14.27;11.52;;;;;;;;;;6242820;23;20035;-72
2023/10/15 07:28:43;;;;;;;13.35;11.95;;;;;;;;;;6243166;23;20062;-72
2023/10/15 07:31:09;;;;;;;3.60;3.40;;;;;;;;;;6243041;23;20443;-73
2023/10/15 07:33:35;;;;;;;2.30;2.17;;;;;;;;;;6242730;23;20499;-72
2023/10/15 07:36:02;;;;;;;1.80;1.67;;;;;;;;;;6243089;23;20023;-71
2023/10/15 07:38:28;;;;;;;2.45;1.90;;;;;;;;;;6243411;23;20008;-71
2023/10/15 07:40:56;;;;;;;4.78;1.30;;;;;;;;;;6216066;23;20372;-72
2023/10/15 07:43:22;;;;;;;2.97;1.92;;;;;;;;;;6191875;23;20012;-71
2023/10/15 07:45:49;;;;;;;1.60;1.50;;;;;;;;;;6243115;23;20400;-71
2023/10/15 07:48:15;;;;;;;1.60;1.50;;;;;;;;;;6242804;23;20114;-71
2023/10/15 07:50:45;;;;;;;1.40;1.30;;;;;;;;;;6191320;23;20035;-71
2023/10/15 07:53:12;;;;;;;1.70;1.50;;;;;;;;;;6242791;23;20015;-70
2023/10/15 07:55:38;;;;;;;2.30;1.70;;;;;;;;;;6214728;23;20142;-70
2023/10/15 07:58:04;;;;;;;2.00;1.90;;;;;;;;;;6242470;23;20016;-69
2023/10/15 08:00:30;;;;;;;2.13;2.03;;;;;;;;;;6242965;23;20098;-70
2023/10/15 08:02:58;;;;;;;3.17;2.88;;;;;;;;;;6243178;23;20091;-69
2023/10/15 08:05:25;;;;;;;2.33;2.13;;;;;;;;;;6242971;23;20365;-69
2023/10/15 08:07:51;;;;;;;2.72;1.80;;;;;;;;;;6242985;23;20008;-69
2023/10/15 08:10:21;;;;;;;2.63;1.60;;;;;;;;;;6242173;23;20024;-69
2023/10/15 08:12:48;;;;;;;1.90;1.40;;;;;;;;;;6242903;23;20020;-69
2023/10/15 08:15:15;;;;;;;1.50;1.40;;;;;;;;;;6242306;23;20012;-69
2023/10/15 08:17:40;;;;;;;1.70;1.60;;;;;;;;;;6242301;23;20012;-69
2023/10/15 08:20:09;;;;;;;2.10;1.90;;;;;;;;;;6191241;23;20141;-68
2023/10/15 08:22:36;;;;;;;1.80;1.70;;;;;;;;;;6243166;23;20012;-69
2023/10/15 08:25:02;;;;;;;2.47;2.28;;;;;;;;;;6242624;23;20019;-69
2023/10/15 08:27:30;;;;;;;2.08;1.95;;;;;;;;;;6243090;23;20016;-68
2023/10/15 08:29:57;;;;;;;1.73;1.63;;;;;;;;;;6242826;23;20016;-68
2023/10/15 08:32:26;;;;;;;3.03;1.52;;;;;;;;;;6242485;23;20419;-69
2023/10/15 08:34:52;;;;;;;2.63;2.05;;;;;;;;;;6242973;23;20019;-68
2023/10/15 08:37:20;;;;;;;2.03;1.90;;;;;;;;;;6242369;23;20095;-69
2023/10/15 08:39:46;;;;;;;1.67;1.58;;;;;;;;;;6190865;23;20090;-70
2023/10/15 08:42:13;;;;;;;2.72;1.60;;;;;;;;;;6242127;23;20015;-69
2023/10/15 08:44:43;;;;;;;3.03;1.90;;;;;;;;;;6242882;23;20023;-69
2023/10/15 08:47:09;;;;;;;1.80;1.70;;;;;;;;;;6242820;23;20008;-69
2023/10/15 08:49:35;;;;;;;1.77;1.60;;;;;;;;;;6243030;23;20015;-70
2023/10/15 08:52:01;;;;;;;2.33;1.65;;;;;;;;;;6242986;23;20498;-70
2023/10/15 08:54:27;;;;;;;2.00;1.77;;;;;;;;;;6216523;23;20083;-69
2023/10/15 08:56:54;;;;;;;2.17;2.00;;;;;;;;;;6242865;23;20016;-70
2023/10/15 08:59:23;;;;;;;2.60;2.40;;;;;;;;;;6242420;23;20012;-69
2023/10/15 09:01:52;;;;;;;1.95;1.85;;;;;;;;;;6216060;23;20070;-71
2023/10/15 09:04:22;;;;;;;2.70;2.45;;;;;;;;;;6242237;23;20074;-69
2023/10/15 09:06:48;;;;;;;5.60;2.60;;;;;;;;;;6239303;23;20008;-71
2023/10/15 09:09:14;;;;;;;3.88;2.90;;;;;;;;;;6215235;23;20426;-69
2023/10/15 09:11:42;;;;;;;3.70;3.40;;;;;;;;;;6242127;23;20069;-70
2023/10/15 09:14:13;;;;;;;3.20;2.40;;;;;;;;;;6241772;23;20031;-70
2023/10/15 09:16:46;;;;;;;2.10;1.90;;;;;;;;;;6242289;23;20019;-69
2023/10/15 09:19:12;;;;;;;3.28;1.83;;;;;;;;;;6215015;23;20098;-68
2023/10/15 09:21:39;;;;;;;0.98;0.98;;;;;;;;;;6238603;23;20471;-69
2023/10/15 09:24:06;;;;;;;2.80;1.83;;;;;;;;;;6240959;23;20054;-69
2023/10/15 09:26:34;;;;;;;3.20;2.00;;;;;;;;;;6241354;23;20016;-69
2023/10/15 09:29:01;;;;;;;2.92;1.80;;;;;;;;;;6189067;23;20043;-70
2023/10/15 09:31:27;;;;;;;2.35;1.92;;;;;;;;;;6188901;23;20026;-69
2023/10/15 09:33:54;;;;;;;1.60;1.50;;;;;;;;;;6241363;23;20051;-71
2023/10/15 09:36:20;;;;;;;2.45;2.22;;;;;;;;;;6213889;23;20138;-69
2023/10/15 09:38:49;;;;;;;3.30;1.95;;;;;;;;;;6214046;23;20035;-70
2023/10/15 09:41:18;;;;;;;2.80;2.08;;;;;;;;;;6214214;23;20028;-69
2023/10/15 09:43:44;;;;;;;3.58;2.75;;;;;;;;;;6214158;23;20360;-69
2023/10/15 09:46:12;;;;;;;3.00;2.70;;;;;;;;;;6188947;23;20008;-72
2023/10/15 09:48:39;;;;;;;2.63;2.20;;;;;;;;;;6213713;23;20020;-70
2023/10/15 09:51:07;;;;;;;2.47;2.28;;;;;;;;;;6239749;23;20030;-70
2023/10/15 09:53:34;;;;;;;2.70;2.50;;;;;;;;;;6213683;23;20012;-73
2023/10/15 09:56:07;;;;;;;5.25;2.60;;;;;;;;;;6214310;23;20012;-71
2023/10/15 09:58:34;;;;;;;2.40;2.20;;;;;;;;;;6213729;23;20073;-71
2023/10/15 10:01:06;;;;;;;5.30;3.03;;;;;;;;;;6239027;23;20012;-70
2023/10/15 10:03:47;;;;;;;3.17;2.88;;;;;;;;;;6240033;23;20012;-70
2023/10/15 10:06:22;;;;;;;3.92;2.80;;;;;;;;;;6239997;23;20066;-70
2023/10/15 10:08:49;;;;;;;6.82;2.80;;;;;;;;;;6240418;23;20280;-71
2023/10/15 10:11:34;;;;;;;3.92;2.95;;;;;;;;;;6240959;23;20070;-70
2023/10/15 10:14:00;;;;;;;5.18;2.88;;;;;;;;;;6241417;23;20046;-72
2023/10/15 10:16:30;;;;;;;7.03;3.00;;;;;;;;;;6213830;23;20012;-69
2023/10/15 10:18:56;;;;;;;4.53;2.67;;;;;;;;;;6241328;23;20066;-70
2023/10/15 10:21:27;;;;;;;7.60;2.88;;;;;;;;;;6215477;23;20012;-70
2023/10/15 10:23:53;;;;;;;6.32;2.83;;;;;;;;;;6216124;23;20141;-70
2023/10/15 10:26:20;;;;;;;6.75;3.47;;;;;;;;;;6243149;23;20472;-70
2023/10/15 10:28:46;;;;;;;4.50;2.83;;;;;;;;;;6215502;23;20455;-70
2023/10/15 10:31:13;;;;;;;5.90;2.58;;;;;;;;;;6239351;23;20031;-69
2023/10/15 10:33:48;;;;;;;4.82;3.08;;;;;;;;;;6242689;23;20012;-70
2023/10/15 10:36:15;;;;;;;3.95;3.10;;;;;;;;;;6242896;23;20018;-70
2023/10/15 10:38:41;;;;;;;3.50;3.15;;;;;;;;;;6191042;23;20040;-71
2023/10/15 10:41:13;;;;;;;3.65;2.80;;;;;;;;;;6242811;23;20011;-68
2023/10/15 10:43:43;;;;;;;3.60;3.05;;;;;;;;;;6215203;23;20411;-70
2023/10/15 10:46:21;;;;;;;4.05;3.22;;;;;;;;;;6242696;23;20692;-69
2023/10/15 10:49:21;;;;;;;5.85;3.78;;;;;;;;;;6243480;23;20012;-68
2023/10/15 10:52:06;;;;;;;4.78;3.28;;;;;;;;;;6177046;23;20043;-69
2023/10/15 10:54:32;;;;;;;10.70;3.15;;;;;;;;;;6216808;23;20008;-68
2023/10/15 10:57:00;;;;;;;6.18;2.92;;;;;;;;;;6243205;23;20034;-70
2023/10/15 10:59:27;;;;;;;5.80;3.08;;;;;;;;;;6242390;23;20015;-69
2023/10/15 11:01:53;;;;;;;4.97;2.97;;;;;;;;;;6243039;23;20363;-70
2023/10/15 11:04:19;;;;;;;4.85;2.83;;;;;;;;;;6242657;23;20036;-69
2023/10/15 11:06:45;;;;;;;7.00;2.90;;;;;;;;;;6243116;23;20039;-69
2023/10/15 11:09:20;;;;;;;5.57;2.60;;;;;;;;;;6242524;23;20070;-69
2023/10/15 11:11:51;;;;;;;8.13;2.42;;;;;;;;;;6243248;23;20012;-69
2023/10/15 11:14:18;;;;;;;5.80;2.67;;;;;;;;;;6242537;23;20058;-69
2023/10/15 11:16:44;;;;;;;6.43;2.70;;;;;;;;;;6216262;23;20077;-70
2023/10/15 11:19:17;;;;;;;5.82;2.75;;;;;;;;;;6215761;23;20019;-69
2023/10/15 11:21:44;;;;;;;6.97;3.22;;;;;;;;;;6242922;23;20012;-69
2023/10/15 11:24:10;;;;;;;7.38;3.20;;;;;;;;;;6242519;23;20388;-70
2023/10/15 11:26:42;;;;;;;5.65;3.13;;;;;;;;;;6242809;23;20023;-70
2023/10/15 11:29:09;;;;;;;5.20;3.30;;;;;;;;;;6243257;23;20048;-70
2023/10/15 11:31:36;;;;;;;5.10;3.15;;;;;;;;;;6242843;23;20467;-69
2023/10/15 11:34:01;;;;;;;7.40;3.38;;;;;;;;;;6242531;23;20360;-70
2023/10/15 11:36:34;;;;;;;4.90;2.97;;;;;;;;;;6215958;23;20016;-70
2023/10/15 11:39:09;;;;;;;6.55;3.55;;;;;;;;;;6242450;23;20021;-70
2023/10/15 11:41:36;;;;;;;5.10;3.80;;;;;;;;;;6242625;23;20019;-70
2023/10/15 11:44:03;;;;;;;5.05;3.10;;;;;;;;;;6242245;23;20478;-69
2023/10/15 11:46:30;;;;;;;4.88;3.10;;;;;;;;;;6215793;23;20115;-69
2023/10/15 11:49:00;;;;;;;3.50;2.92;;;;;;;;;;6216172;23;20024;-68
2023/10/15 11:51:28;;;;;;;3.95;2.97;;;;;;;;;;6216369;23;20024;-70
2023/10/15 11:53:55;;;;;;;3.10;2.80;;;;;;;;;;6242951;23;20019;-69
2023/10/15 11:56:23;;;;;;;8.18;3.45;;;;;;;;;;6217417;23;20016;-70
2023/10/15 11:58:51;;;;;;;5.53;3.40;;;;;;;;;;6216988;23;20008;-70
2023/10/15 12:01:17;;;;;;;10.98;4.10;;;;;;;;;;6242483;23;20083;-70
2023/10/15 12:03:43;;;;;;;6.15;3.75;;;;;;;;;;6216127;23;20625;-69
2023/10/15 12:06:09;;;;;;;5.38;3.55;;;;;;;;;;6243075;23;20059;-69
2023/10/15 12:08:35;;;;;;;4.63;3.30;;;;;;;;;;6242568;23;20020;-71
2023/10/15 12:11:01;;;;;;;7.80;3.38;;;;;;;;;;6191084;23;20094;-70
2023/10/15 12:13:27;;;;;;;4.85;3.33;;;;;;;;;;6215766;23;20453;-68
2023/10/15 12:15:53;;;;;;;7.22;3.30;;;;;;;;;;6216077;23;20008;-70
2023/10/15 12:18:19;;;;;;;6.68;3.33;;;;;;;;;;6215209;23;20034;-69
2023/10/15 12:20:45;;;;;;;4.07;2.65;;;;;;;;;;6242387;23;20023;-70
2023/10/15 12:23:10;;;;;;;7.30;3.45;;;;;;;;;;6242344;23;20449;-69
2023/10/15 12:25:38;;;;;;;4.88;3.22;;;;;;;;;;6215733;23;20488;-69
2023/10/15 12:28:04;;;;;;;12.32;3.38;;;;;;;;;;6242577;23;20020;-69
2023/10/15 12:30:32;;;;;;;8.95;3.08;;;;;;;;;;6241466;23;20027;-68
2023/10/15 12:32:58;;;;;;;4.43;2.20;;;;;;;;;;6243019;23;20012;-69
2023/10/15 12:35:24;;;;;;;4.13;2.75;;;;;;;;;;6242358;23;20023;-68
2023/10/15 12:37:58;;;;;;;5.18;2.95;;;;;;;;;;6242692;23;20102;-70
2023/10/15 12:40:31;;;;;;;4.80;2.75;;;;;;;;;;6242504;23;20020;-69
2023/10/15 12:43:00;;;;;;;10.23;3.22;;;;;;;;;;6242592;23;20035;-70
2023/10/15 12:45:27;;;;;;;6.18;2.85;;;;;;;;;;6242171;23;20069;-71
2023/10/15 12:47:53;;;;;;;4.05;2.72;;;;;;;;;;6215887;23;20528;-69
2023/10/15 12:50:19;;;;;;;4.20;2.90;;;;;;;;;;6215285;23;20051;-69
2023/10/15 12:52:45;;;;;;;4.78;2.83;;;;;;;;;;6190755;23;20055;-70
2023/10/15 12:55:11;;;;;;;6.85;3.28;;;;;;;;;;6242427;23;20015;-70
2023/10/15 12:57:37;;;;;;;4.18;3.50;;;;;;;;;;6242360;23;20074;-69
2023/10/15 13:00:21;;;;;;;4.70;2.67;;;;;;;;;;6242201;23;20407;-69
2023/10/15 13:02:50;;;;;;;4.22;2.83;;;;;;;;;;6242548;23;20036;-69
2023/10/15 13:05:17;;;;;;;7.32;3.35;;;;;;;;;;6242144;23;20016;-68
2023/10/15 13:07:43;;;;;;;7.25;3.20;;;;;;;;;;6215569;23;20062;-69
2023/10/15 13:10:09;;;;;;;4.13;2.65;;;;;;;;;;6242028;23;20046;-69
2023/10/15 13:12:38;;;;;;;5.43;2.85;;;;;;;;;;6242077;23;20015;-70
2023/10/15 13:15:07;;;;;;;3.75;2.80;;;;;;;;;;6215652;23;20023;-69
2023/10/15 13:17:34;;;;;;;6.10;2.55;;;;;;;;;;6242177;23;20019;-69
2023/10/15 13:20:04;;;;;;;3.95;2.63;;;;;;;;;;6242535;23;20352;-69
2023/10/15 13:22:30;;;;;;;5.90;3.10;;;;;;;;;;6242427;23;20015;-69
2023/10/15 13:24:56;;;;;;;3.65;2.63;;;;;;;;;;6242839;23;20417;-69
2023/10/15 13:27:22;;;;;;;6.13;2.78;;;;;;;;;;6241820;23;20035;-70
2023/10/15 13:29:49;;;;;;;4.20;3.00;;;;;;;;;;6240850;23;20469;-70
2023/10/15 13:32:16;;;;;;;4.13;3.13;;;;;;;;;;6188033;23;20031;-69
2023/10/15 13:34:42;;;;;;;6.68;3.53;;;;;;;;;;6239844;23;20016;-71
2023/10/15 13:37:12;;;;;;;5.43;3.25;;;;;;;;;;6213297;23;20449;-71
2023/10/15 13:39:41;;;;;;;7.38;3.55;;;;;;;;;;6214123;23;20014;-70
2023/10/15 13:42:08;;;;;;;4.03;3.15;;;;;;;;;;6240875;23;20067;-70
2023/10/15 13:44:33;;;;;;;4.35;3.28;;;;;;;;;;6241221;23;20201;-70
2023/10/15 13:47:05;;;;;;;4.32;3.08;;;;;;;;;;6215504;23;20099;-70
2023/10/15 13:49:31;;;;;;;5.68;3.13;;;;;;;;;;6190437;23;20016;-70
2023/10/15 13:51:57;;;;;;;5.13;2.80;;;;;;;;;;6242370;23;20050;-70
2023/10/15 13:54:24;;;;;;;4.05;3.38;;;;;;;;;;6241853;23;20039;-69
2023/10/15 13:56:50;;;;;;;3.00;2.70;;;;;;;;;;6242348;23;20016;-69
2023/10/15 13:59:16;;;;;;;11.60;3.05;;;;;;;;;;6241864;23;20008;-69
2023/10/15 14:01:42;;;;;;;7.95;3.40;;;;;;;;;;6215041;23;20011;-69
2023/10/15 14:04:08;;;;;;;5.40;2.60;;;;;;;;;;6241919;23;20032;-70
2023/10/15 14:06:34;;;;;;;6.35;3.13;;;;;;;;;;6215144;23;20015;-70
2023/10/15 14:09:00;;;;;;;7.15;3.20;;;;;;;;;;6241703;23;20023;-70
2023/10/15 14:11:30;;;;;;;7.18;3.17;;;;;;;;;;6241639;23;20027;-70
2023/10/15 14:13:56;;;;;;;4.60;3.25;;;;;;;;;;6241941;23;20065;-69
2023/10/15 14:16:23;;;;;;;4.43;2.80;;;;;;;;;;6241599;23;20027;-69
2023/10/15 14:18:50;;;;;;;6.88;3.40;;;;;;;;;;6241840;23;20357;-69
2023/10/15 14:21:17;;;;;;;6.63;3.22;;;;;;;;;;6242025;23;20020;-69
2023/10/15 14:23:45;;;;;;;4.40;3.40;;;;;;;;;;6215062;23;20019;-70
2023/10/15 14:26:13;;;;;;;4.20;2.65;;;;;;;;;;6242174;23;20046;-70
2023/10/15 14:28:42;;;;;;;3.15;2.47;;;;;;;;;;6241619;23;20510;-69
2023/10/15 14:31:08;;;;;;;11.50;3.22;;;;;;;;;;6242143;23;20465;-69
2023/10/15 14:33:34;;;;;;;6.97;3.10;;;;;;;;;;6215032;23;20023;-69
2023/10/15 14:36:02;;;;;;;6.32;3.92;;;;;;;;;;6241683;23;20039;-69
2023/10/15 14:38:29;;;;;;;6.53;3.40;;;;;;;;;;6190889;23;20392;-70
2023/10/15 14:40:56;;;;;;;8.93;4.50;;;;;;;;;;6241873;23;20074;-69
2023/10/15 14:43:22;;;;;;;8.45;4.53;;;;;;;;;;6241716;23;20091;-70
2023/10/15 14:45:49;;;;;;;5.55;3.25;;;;;;;;;;6241821;23;20016;-69
2023/10/15 14:48:17;;;;;;;6.88;3.75;;;;;;;;;;6215106;23;20660;-69
2023/10/15 14:50:46;;;;;;;7.13;3.60;;;;;;;;;;6190259;23;20031;-69
2023/10/15 14:53:14;;;;;;;5.00;3.63;;;;;;;;;;6241181;23;20055;-69
2023/10/15 14:55:40;;;;;;;5.65;3.45;;;;;;;;;;6241010;23;20016;-69
2023/10/15 14:58:06;;;;;;;7.20;4.10;;;;;;;;;;6241310;23;20031;-69
2023/10/15 15:00:32;;;;;;;11.68;4.07;;;;;;;;;;6189308;23;20016;-70
2023/10/15 15:02:59;;;;;;;7.55;3.95;;;;;;;;;;6241349;23;20090;-69
2023/10/15 15:05:25;;;;;;;7.15;3.97;;;;;;;;;;6242625;23;20066;-69
2023/10/15 15:07:51;;;;;;;8.85;3.55;;;;;;;;;;6243327;23;20008;-70
2023/10/15 15:10:18;;;;;;;4.57;3.58;;;;;;;;;;6243052;23;20027;-70
2023/10/15 15:12:45;;;;;;;6.25;4.07;;;;;;;;;;6243413;23;20013;-69
2023/10/15 15:15:13;;;;;;;5.55;4.47;;;;;;;;;;6216609;23;20050;-69
2023/10/15 15:17:40;;;;;;;9.70;4.10;;;;;;;;;;6243120;23;20012;-71
2023/10/15 15:20:07;;;;;;;14.25;4.30;;;;;;;;;;6243952;23;20012;-70
2023/10/15 15:22:34;;;;;;;5.97;4.03;;;;;;;;;;6246892;23;20509;-69
2023/10/15 15:25:01;;;;;;;5.05;3.67;;;;;;;;;;6246908;23;20023;-70
2023/10/15 15:27:27;;;;;;;5.82;4.05;;;;;;;;;;6245843;23;20031;-69
2023/10/15 15:29:54;;;;;;;10.63;4.00;;;;;;;;;;6244998;23;20393;-70
2023/10/15 15:32:21;;;;;;;7.05;3.72;;;;;;;;;;6243188;23;20070;-70
2023/10/15 15:34:49;;;;;;;4.55;3.40;;;;;;;;;;6242798;23;20012;-71
2023/10/15 15:37:15;;;;;;;9.13;3.72;;;;;;;;;;6216282;23;20035;-69
2023/10/15 15:39:43;;;;;;;9.15;4.50;;;;;;;;;;6242797;23;20008;-71
2023/10/15 15:42:09;;;;;;;8.77;4.00;;;;;;;;;;6243346;23;20083;-69
2023/10/15 15:44:36;;;;;;;8.45;3.83;;;;;;;;;;6242914;23;20012;-70
2023/10/15 15:47:02;;;;;;;8.23;4.35;;;;;;;;;;6243134;23;20016;-70
2023/10/15 15:49:28;;;;;;;8.45;4.80;;;;;;;;;;6243777;23;20015;-70
2023/10/15 15:51:54;;;;;;;8.02;4.40;;;;;;;;;;6191538;23;20095;-70
2023/10/15 15:54:21;;;;;;;6.45;4.43;;;;;;;;;;6216034;23;20016;-69
2023/10/15 15:56:47;;;;;;;8.05;3.15;;;;;;;;;;6242663;23;20074;-70
2023/10/15 15:59:13;;;;;;;7.65;3.55;;;;;;;;;;6242872;23;20079;-70
2023/10/15 16:01:40;;;;;;;7.45;5.22;;;;;;;;;;6242535;23;20058;-69
2023/10/15 16:04:05;;;;;;;14.00;4.55;;;;;;;;;;6243036;23;20012;-69
2023/10/15 16:06:31;;;;;;;9.10;3.45;;;;;;;;;;6215548;23;20016;-70
2023/10/15 16:09:00;;;;;;;10.18;4.82;;;;;;;;;;6242956;23;20837;-69
2023/10/15 16:11:26;;;;;;;7.75;4.85;;;;;;;;;;6216933;23;20027;-70
2023/10/15 16:13:53;;;;;;;7.68;4.47;;;;;;;;;;6242868;23;20008;-70
2023/10/15 16:16:19;;;;;;;5.15;4.20;;;;;;;;;;6190892;23;20023;-69
2023/10/15 16:18:45;;;;;;;6.88;3.83;;;;;;;;;;6242608;23;20083;-69
2023/10/15 16:21:11;;;;;;;9.52;4.15;;;;;;;;;;6242783;23;20008;-70
2023/10/15 16:23:38;;;;;;;13.90;4.25;;;;;;;;;;6243321;23;20070;-69
2023/10/15 16:26:04;;;;;;;9.63;3.88;;;;;;;;;;6191669;23;20073;-69
2023/10/15 16:28:30;;;;;;;8.10;4.80;;;;;;;;;;6242935;23;20022;-70
2023/10/15 16:30:56;;;;;;;5.40;4.20;;;;;;;;;;6242662;23;20030;-68
2023/10/15 16:33:23;;;;;;;8.68;3.90;;;;;;;;;;6242999;23;20031;-69
2023/10/15 16:35:51;;;;;;;12.85;5.15;;;;;;;;;;6242743;23;20012;-69
2023/10/15 16:38:18;;;;;;;7.70;4.43;;;;;;;;;;6216198;23;20046;-70
2023/10/15 16:40:44;;;;;;;7.57;4.28;;;;;;;;;;6214119;23;20090;-72
2023/10/15 16:43:10;;;;;;;8.68;4.20;;;;;;;;;;6215894;23;20502;-70
2023/10/15 16:45:37;;;;;;;4.93;4.10;;;;;;;;;;6215353;23;20016;-69
2023/10/15 16:48:10;;;;;;;6.40;4.38;;;;;;;;;;6242873;23;20035;-70
2023/10/15 16:50:41;;;;;;;7.13;3.05;;;;;;;;;;6242265;23;20027;-70
2023/10/15 16:53:07;;;;;;;7.72;3.40;;;;;;;;;;6243089;23;20567;-71
2023/10/15 16:55:34;;;;;;;4.25;3.78;;;;;;;;;;6239222;23;20020;-69
2023/10/15 16:58:00;;;;;;;5.00;3.60;;;;;;;;;;6214736;23;20023;-69
2023/10/15 17:00:28;;;;;;;8.10;3.72;;;;;;;;;;6241925;23;20528;-68
2023/10/15 17:02:54;;;;;;;5.93;3.80;;;;;;;;;;6242418;23;20039;-69
2023/10/15 17:05:20;;;;;;;4.53;3.90;;;;;;;;;;6215270;23;20030;-69
2023/10/15 17:07:47;;;;;;;11.48;6.20;;;;;;;;;;6165376;23;20015;-69
2023/10/15 17:10:13;;;;;;;9.85;4.45;;;;;;;;;;6241683;23;20602;-69
2023/10/15 17:12:40;;;;;;;5.78;4.45;;;;;;;;;;6242135;23;20012;-69
2023/10/15 17:15:11;;;;;;;6.72;3.50;;;;;;;;;;6190619;23;20016;-70
2023/10/15 17:17:39;;;;;;;6.05;4.72;;;;;;;;;;6216260;23;20444;-70
2023/10/15 17:20:05;;;;;;;6.85;4.80;;;;;;;;;;6190278;23;20039;-69
2023/10/15 17:22:32;;;;;;;6.10;4.18;;;;;;;;;;6241289;23;20062;-71
2023/10/15 17:24:58;;;;;;;7.57;4.22;;;;;;;;;;6190142;23;20023;-69
2023/10/15 17:27:25;;;;;;;12.05;4.07;;;;;;;;;;6241758;23;20023;-70
2023/10/15 17:29:54;;;;;;;9.00;3.80;;;;;;;;;;6214083;23;20016;-69
2023/10/15 17:32:21;;;;;;;7.95;4.80;;;;;;;;;;6242162;23;20456;-70
2023/10/15 17:34:47;;;;;;;6.97;4.25;;;;;;;;;;6241453;23;20016;-69
2023/10/15 17:37:13;;;;;;;4.47;3.78;;;;;;;;;;6215620;23;20094;-70
2023/10/15 17:39:41;;;;;;;7.43;3.88;;;;;;;;;;6189689;23;20051;-70
2023/10/15 17:42:09;;;;;;;9.02;4.32;;;;;;;;;;6242464;23;20016;-69
2023/10/15 17:44:37;;;;;;;9.68;4.65;;;;;;;;;;6190199;23;20008;-70
2023/10/15 17:47:04;;;;;;;9.38;4.22;;;;;;;;;;6241912;23;20011;-68
2023/10/15 17:49:30;;;;;;;10.40;3.88;;;;;;;;;;6241343;23;20034;-69
2023/10/15 17:51:57;;;;;;;8.82;4.20;;;;;;;;;;6241622;23;20012;-69
2023/10/15 17:54:23;;;;;;;7.55;3.90;;;;;;;;;;6241496;23;20062;-69
2023/10/15 17:56:49;;;;;;;5.05;3.83;;;;;;;;;;6241025;23;20370;-70
2023/10/15 17:59:16;;;;;;;6.72;3.10;;;;;;;;;;6241707;23;20012;-71